Time;durP1;ratioP1;P1;durP2;ratioP2;P2;SDS_P1;SDS_P2;PMS_P1;PMS_P2;Temp;Humidity;BMP_temperature;BMP_pressure;BME280_temperature;BME280_humidity;BME280_pressure;Samples;Min_cycle;Max_cycle;Signal;HPM_P1;HPM_P2
2021/08/05 00:01:10;;;;;;;;;;;14.00;99.90;;;;;;5028414;28;20351;-81
2021/08/05 00:03:35;;;;;;;;;;;14.00;99.90;;;;;;5027102;28;20301;-80
2021/08/05 00:06:01;;;;;;;;;;;14.00;99.90;;;;;;5027591;28;19909;-80
2021/08/05 00:08:26;;;;;;;;;;;14.00;99.90;;;;;;5027270;28;20245;-80
2021/08/05 00:10:52;;;;;;;;;;;14.00;99.90;;;;;;5028520;28;20006;-81
2021/08/05 00:13:17;;;;;;;;;;;14.00;99.90;;;;;;5027948;28;19928;-82
2021/08/05 00:15:43;;;;;;;;;;;14.00;99.90;;;;;;5028372;28;19956;-81
2021/08/05 00:18:08;;;;;;;;;;;13.90;99.90;;;;;;5029063;28;19913;-82
2021/08/05 00:20:33;;;;;;;;;;;13.90;99.90;;;;;;5028417;28;19923;-81
2021/08/05 00:22:59;;;;;;;;;;;13.90;99.90;;;;;;5028513;28;19908;-82
2021/08/05 00:25:24;;;;;;;;;;;13.90;99.90;;;;;;5028203;28;20374;-81
2021/08/05 00:27:50;;;;;;;;;;;13.90;99.90;;;;;;5010893;28;20368;-81
2021/08/05 00:30:15;;;;;;;;;;;13.90;99.90;;;;;;5027940;28;20035;-82
2021/08/05 00:32:41;;;;;;;;;;;13.90;99.90;;;;;;5026749;28;19987;-82
2021/08/05 00:35:07;;;;;;;;;;;13.90;99.90;;;;;;5027384;28;19916;-82
2021/08/05 00:37:32;;;;;;;;;;;13.90;99.90;;;;;;5030028;28;19912;-82
2021/08/05 00:39:58;;;;;;;;;;;13.80;99.90;;;;;;5029816;28;19909;-82
2021/08/05 00:42:24;;;;;;;;;;;13.80;99.90;;;;;;5029685;28;19917;-81
2021/08/05 00:44:49;;;;;;;;;;;13.80;99.90;;;;;;5011985;28;19955;-82
2021/08/05 00:47:14;;;;;;;;;;;13.80;99.90;;;;;;5029328;28;19944;-81
2021/08/05 00:49:40;;;;;;;;;;;13.80;99.90;;;;;;5029922;28;19953;-81
2021/08/05 00:52:07;;;;;;;;;;;13.80;99.90;;;;;;5029432;28;19935;-82
2021/08/05 00:54:32;;;;;;;;;;;13.80;99.90;;;;;;5028373;28;19913;-82
2021/08/05 00:56:58;;;;;;;;;;;13.80;99.90;;;;;;5011698;28;19905;-82
2021/08/05 00:59:23;;;;;;;;;;;13.80;99.90;;;;;;5030154;28;20035;-81
2021/08/05 01:02:08;;;;;;;;;;;13.80;99.90;;;;;;5029702;28;19996;-81
2021/08/05 01:04:34;;;;;;;;;;;13.80;99.90;;;;;;5029548;28;19908;-82
2021/08/05 01:07:02;;;;;;;;;;;13.80;99.90;;;;;;5029238;28;19988;-82
2021/08/05 01:09:27;;;;;;;;;;;13.70;99.90;;;;;;5029500;28;19909;-82
2021/08/05 01:12:11;;;;;;;;;;;13.70;99.90;;;;;;5029239;28;19963;-82
2021/08/05 01:14:38;;;;;;;;;;;13.80;99.90;;;;;;5029228;28;20251;-82
2021/08/05 01:17:04;;;;;;;;;;;13.80;99.90;;;;;;5029527;28;20286;-82
2021/08/05 01:19:33;;;;;;;;;;;13.80;99.90;;;;;;5029050;28;20355;-82
2021/08/05 01:22:03;;;;;;;;;;;13.70;99.90;;;;;;5030233;28;19913;-82
2021/08/05 01:24:31;;;;;;;;;;;13.70;99.90;;;;;;5022596;28;20361;-82
2021/08/05 01:26:58;;;;;;;;;;;13.80;99.90;;;;;;5029009;28;20392;-81
2021/08/05 01:29:24;;;;;;;;;;;13.70;99.90;;;;;;5028785;28;19987;-82
2021/08/05 01:31:50;;;;;;;;;;;13.70;99.90;;;;;;5028811;28;20027;-82
2021/08/05 01:34:16;;;;;;;;;;;13.60;99.90;;;;;;5029035;28;19963;-82
2021/08/05 01:36:43;;;;;;;;;;;13.60;99.90;;;;;;5028515;28;19943;-82
2021/08/05 01:39:09;;;;;;;;;;;13.60;99.90;;;;;;5028796;28;19909;-82
2021/08/05 01:41:36;;;;;;;;;;;13.60;99.90;;;;;;5028482;28;20356;-82
2021/08/05 01:44:01;;;;;;;;;;;13.50;99.90;;;;;;5027316;28;19959;-82
2021/08/05 01:46:27;;;;;;;;;;;13.50;99.90;;;;;;5028175;28;19937;-82
2021/08/05 01:48:53;;;;;;;;;;;13.50;99.90;;;;;;5028200;28;19959;-82
2021/08/05 01:51:19;;;;;;;;;;;13.50;99.90;;;;;;5028551;28;19909;-82
2021/08/05 01:53:45;;;;;;;;;;;13.50;99.90;;;;;;5028479;28;19909;-82
2021/08/05 01:56:11;;;;;;;;;;;13.50;99.90;;;;;;5027964;28;19912;-82
2021/08/05 01:58:37;;;;;;;;;;;13.40;99.90;;;;;;5010336;28;20771;-82
2021/08/05 02:01:02;;;;;;;;;;;13.40;99.90;;;;;;5028712;28;19923;-82
2021/08/05 02:03:28;;;;;;;;;;;13.40;99.90;;;;;;5028437;28;19920;-82
2021/08/05 02:06:04;;;;;;;;;;;13.40;99.90;;;;;;5027981;28;20169;-82
2021/08/05 02:08:34;;;;;;;;;;;13.40;99.90;;;;;;5028324;28;19955;-82
2021/08/05 02:11:00;;;;;;;;;;;13.40;99.90;;;;;;5027959;28;19908;-82
2021/08/05 02:13:28;;;;;;;;;;;13.40;99.90;;;;;;5028111;28;19915;-82
2021/08/05 02:15:54;;;;;;;;;;;13.40;99.90;;;;;;5027683;28;19987;-82
2021/08/05 02:18:21;;;;;;;;;;;13.40;99.90;;;;;;5028146;28;19909;-82
2021/08/05 02:20:47;;;;;;;;;;;13.40;99.90;;;;;;5027895;28;19987;-82
2021/08/05 02:23:16;;;;;;;;;;;13.40;99.90;;;;;;5028081;28;19999;-82
2021/08/05 02:25:42;;;;;;;;;;;13.30;99.90;;;;;;5027991;28;19968;-82
2021/08/05 02:28:08;;;;;;;;;;;13.30;99.90;;;;;;5027573;28;19909;-82
2021/08/05 02:30:35;;;;;;;;;;;13.40;99.90;;;;;;5027905;28;19996;-83
2021/08/05 02:33:00;;;;;;;;;;;13.40;99.90;;;;;;5027573;28;19924;-82
2021/08/05 02:35:26;;;;;;;;;;;13.40;99.90;;;;;;5027972;28;19909;-82
2021/08/05 02:37:52;;;;;;;;;;;13.40;99.90;;;;;;5010163;28;19919;-82
2021/08/05 02:40:17;;;;;;;;;;;13.40;99.90;;;;;;5028119;28;19905;-82
2021/08/05 02:42:44;;;;;;;;;;;13.40;99.90;;;;;;5027684;28;20011;-82
2021/08/05 02:45:10;;;;;;;;;;;13.40;99.90;;;;;;5027611;28;20350;-82
2021/08/05 02:47:36;;;;;;;;;;;13.40;99.90;;;;;;5028067;28;19915;-82
2021/08/05 02:50:02;;;;;;;;;;;13.40;99.90;;;;;;5027218;28;19932;-82
2021/08/05 02:52:27;;;;;;;;;;;13.40;99.90;;;;;;5027703;28;20016;-82
2021/08/05 02:54:54;;;;;;;;;;;13.40;99.90;;;;;;5027501;28;19996;-82
2021/08/05 02:57:19;;;;;;;;;;;13.50;99.90;;;;;;5027065;28;19909;-82
2021/08/05 02:59:45;;;;;;;;;;;13.50;99.90;;;;;;5026635;28;19912;-82
2021/08/05 03:02:13;;;;;;;;;;;13.50;99.90;;;;;;5027269;28;20039;-82
2021/08/05 03:04:39;;;;;;;;;;;13.50;99.90;;;;;;5028259;28;19915;-82
2021/08/05 03:07:04;;;;;;;;;;;13.50;99.90;;;;;;5010068;28;19991;-82
2021/08/05 03:09:30;;;;;;;;;;;13.50;99.90;;;;;;5027423;28;19955;-82
2021/08/05 03:11:55;;;;;;;;;;;13.50;99.90;;;;;;5027722;28;20354;-82
2021/08/05 03:14:21;;;;;;;;;;;13.50;99.90;;;;;;5028154;28;20032;-82
2021/08/05 03:16:46;;;;;;;;;;;13.50;99.90;;;;;;5027508;28;19912;-82
2021/08/05 03:19:12;;;;;;;;;;;13.50;99.90;;;;;;5008738;28;19916;-82
2021/08/05 03:21:37;;;;;;;;;;;13.50;99.90;;;;;;5027454;28;20007;-82
2021/08/05 03:24:03;;;;;;;;;;;13.50;99.90;;;;;;5027246;28;19916;-82
2021/08/05 03:26:28;;;;;;;;;;;13.50;99.90;;;;;;5027006;28;20412;-82
2021/08/05 03:28:55;;;;;;;;;;;13.40;99.90;;;;;;5027457;28;19913;-82
2021/08/05 03:31:20;;;;;;;;;;;13.40;99.90;;;;;;5027576;28;20342;-82
2021/08/05 03:33:46;;;;;;;;;;;13.50;99.90;;;;;;5027364;28;19920;-82
2021/08/05 03:36:12;;;;;;;;;;;13.40;99.90;;;;;;5027205;28;20443;-82
2021/08/05 03:38:37;;;;;;;;;;;13.40;99.90;;;;;;5027499;28;19905;-82
2021/08/05 03:41:04;;;;;;;;;;;13.40;99.90;;;;;;5027056;28;19924;-82
2021/08/05 03:43:30;;;;;;;;;;;13.50;99.90;;;;;;5009348;28;19948;-82
2021/08/05 03:45:56;;;;;;;;;;;13.40;99.90;;;;;;5027355;28;19955;-82
2021/08/05 03:48:22;;;;;;;;;;;13.40;99.90;;;;;;5027246;28;19913;-82
2021/08/05 03:50:47;;;;;;;;;;;13.50;99.90;;;;;;5009497;28;19955;-82
2021/08/05 03:53:12;;;;;;;;;;;13.40;99.90;;;;;;5027077;28;19955;-82
2021/08/05 03:55:38;;;;;;;;;;;13.40;99.90;;;;;;5027020;28;20377;-82
2021/08/05 03:58:07;;;;;;;;;;;13.40;99.90;;;;;;5027204;28;19913;-82
2021/08/05 04:00:32;;;;;;;;;;;13.40;99.90;;;;;;5026830;28;19908;-82
2021/08/05 04:02:58;;;;;;;;;;;13.40;99.90;;;;;;5026787;28;19978;-82
2021/08/05 04:05:23;;;;;;;;;;;13.40;99.90;;;;;;5026806;28;20365;-82
2021/08/05 04:07:49;;;;;;;;;;;13.40;99.90;;;;;;5008770;28;20282;-82
2021/08/05 04:10:14;;;;;;;;;;;13.40;99.90;;;;;;5028113;28;19917;-82
2021/08/05 04:12:40;;;;;;;;;;;13.40;99.90;;;;;;5030848;28;19913;-82
2021/08/05 04:15:06;;;;;;;;;;;13.40;99.90;;;;;;5027761;28;19936;-82
2021/08/05 04:17:31;;;;;;;;;;;13.40;99.90;;;;;;5033377;28;20000;-76
2021/08/05 04:19:57;;;;;;;;;;;13.40;99.90;;;;;;5036511;28;20047;-76
2021/08/05 04:22:22;;;;;;;;;;;13.40;99.90;;;;;;5035070;28;20350;-78
2021/08/05 04:24:48;;;;;;;;;;;13.30;99.90;;;;;;5035676;28;20364;-76
2021/08/05 04:27:13;;;;;;;;;;;13.30;99.90;;;;;;5036864;28;19909;-75
2021/08/05 04:29:39;;;;;;;;;;;13.30;99.90;;;;;;5036710;28;19990;-76
2021/08/05 04:32:04;;;;;;;;;;;13.30;99.90;;;;;;5036350;28;19905;-76
2021/08/05 04:34:30;;;;;;;;;;;13.30;99.90;;;;;;5030880;28;19909;-82
2021/08/05 04:36:55;;;;;;;;;;;13.30;99.90;;;;;;5029590;28;19913;-82
2021/08/05 04:39:21;;;;;;;;;;;13.30;99.90;;;;;;5030638;28;19909;-82
2021/08/05 04:41:46;;;;;;;;;;;13.30;99.90;;;;;;5031048;28;19918;-82
2021/08/05 04:44:12;;;;;;;;;;;13.40;99.90;;;;;;5030552;28;19996;-83
2021/08/05 04:46:37;;;;;;;;;;;13.40;99.90;;;;;;5030354;28;19920;-82
2021/08/05 04:49:03;;;;;;;;;;;13.30;99.90;;;;;;5030964;28;20312;-82
2021/08/05 04:51:31;;;;;;;;;;;13.30;99.90;;;;;;5028911;28;20374;-83
2021/08/05 04:54:00;;;;;;;;;;;13.30;99.90;;;;;;5012154;28;19996;-82
2021/08/05 04:56:26;;;;;;;;;;;13.30;99.90;;;;;;5011949;28;19909;-82
2021/08/05 04:58:51;;;;;;;;;;;13.30;99.90;;;;;;5030504;28;19919;-82
2021/08/05 05:01:17;;;;;;;;;;;13.30;99.90;;;;;;5030891;28;19913;-82
2021/08/05 05:03:42;;;;;;;;;;;13.40;99.90;;;;;;5028194;28;19905;-82
2021/08/05 05:06:08;;;;;;;;;;;13.40;99.90;;;;;;5027004;28;20273;-82
2021/08/05 05:08:33;;;;;;;;;;;13.30;99.90;;;;;;5032203;28;19913;-82
2021/08/05 05:10:58;;;;;;;;;;;13.40;99.90;;;;;;5029300;28;19916;-83
2021/08/05 05:13:24;;;;;;;;;;;13.40;99.90;;;;;;5027487;28;19913;-82
2021/08/05 05:15:50;;;;;;;;;;;13.40;99.90;;;;;;5030714;28;20254;-82
2021/08/05 05:18:16;;;;;;;;;;;13.40;99.90;;;;;;5030523;28;19939;-84
2021/08/05 05:20:42;;;;;;;;;;;13.40;99.90;;;;;;5030538;28;20778;-81
2021/08/05 05:23:08;;;;;;;;;;;13.50;99.90;;;;;;5030251;28;19905;-81
2021/08/05 05:25:33;;;;;;;;;;;13.40;99.90;;;;;;5032152;28;19928;-81
2021/08/05 05:27:59;;;;;;;;;;;13.40;99.90;;;;;;5030619;28;19909;-81
2021/08/05 05:30:24;;;;;;;;;;;13.50;99.90;;;;;;5030590;28;20239;-81
2021/08/05 05:32:50;;;;;;;;;;;13.50;99.90;;;;;;5013344;28;20243;-81
2021/08/05 05:35:17;;;;;;;;;;;13.40;99.90;;;;;;5030849;28;20382;-82
2021/08/05 05:37:43;;;;;;;;;;;13.50;99.90;;;;;;5012529;28;19909;-82
2021/08/05 05:40:09;;;;;;;;;;;13.50;99.90;;;;;;5030386;28;19915;-82
2021/08/05 05:42:35;;;;;;;;;;;13.50;99.90;;;;;;5031570;28;19913;-81
2021/08/05 05:45:00;;;;;;;;;;;13.50;99.90;;;;;;5013474;28;19913;-81
2021/08/05 05:47:26;;;;;;;;;;;13.50;99.90;;;;;;5013702;28;19909;-82
2021/08/05 05:49:52;;;;;;;;;;;13.50;99.90;;;;;;5031079;28;20317;-81
2021/08/05 05:52:18;;;;;;;;;;;13.50;99.90;;;;;;5033250;28;19912;-76
2021/08/05 05:54:44;;;;;;;;;;;13.50;99.90;;;;;;5029207;28;20292;-81
2021/08/05 05:57:09;;;;;;;;;;;13.50;99.90;;;;;;5028400;28;19944;-80
2021/08/05 05:59:35;;;;;;;;;;;13.50;99.90;;;;;;5027091;28;19919;-81
2021/08/05 06:02:00;;;;;;;;;;;13.50;99.90;;;;;;5027328;28;19913;-81
2021/08/05 06:04:27;;;;;;;;;;;13.40;99.90;;;;;;5028265;28;20834;-83
2021/08/05 06:06:53;;;;;;;;;;;13.40;99.90;;;;;;5036045;28;20564;-82
2021/08/05 06:09:19;;;;;;;;;;;13.50;99.90;;;;;;5027755;28;20053;-82
2021/08/05 06:11:44;;;;;;;;;;;13.40;99.90;;;;;;5027819;28;19993;-82
2021/08/05 06:14:10;;;;;;;;;;;13.40;99.90;;;;;;5010836;28;19915;-82
2021/08/05 06:16:35;;;;;;;;;;;13.40;99.90;;;;;;5027933;28;19990;-82
2021/08/05 06:19:02;;;;;;;;;;;13.40;99.90;;;;;;5028306;28;20353;-82
2021/08/05 06:21:27;;;;;;;;;;;13.40;99.90;;;;;;5027083;28;19963;-83
2021/08/05 06:23:53;;;;;;;;;;;13.40;99.90;;;;;;5029166;28;19905;-77
2021/08/05 06:26:19;;;;;;;;;;;13.50;99.90;;;;;;5016292;28;20400;-77
2021/08/05 06:28:45;;;;;;;;;;;13.50;99.90;;;;;;5034534;28;20261;-77
2021/08/05 06:31:12;;;;;;;;;;;13.50;99.90;;;;;;5034247;28;19905;-77
2021/08/05 06:33:37;;;;;;;;;;;13.50;99.90;;;;;;5033335;28;19905;-76
2021/08/05 06:36:03;;;;;;;;;;;13.50;99.90;;;;;;5030185;28;20025;-82
2021/08/05 06:38:28;;;;;;;;;;;13.50;99.90;;;;;;5031347;28;20038;-76
2021/08/05 06:40:54;;;;;;;;;;;13.50;99.90;;;;;;5026153;28;19920;-82
2021/08/05 06:43:19;;;;;;;;;;;13.60;99.90;;;;;;5025107;28;19979;-82
2021/08/05 06:45:44;;;;;;;;;;;13.70;99.90;;;;;;5027000;28;20622;-83
2021/08/05 06:48:10;;;;;;;;;;;13.70;99.90;;;;;;5010242;28;20390;-82
2021/08/05 06:50:36;;;;;;;;;;;13.70;99.90;;;;;;5029609;28;19912;-81
2021/08/05 06:53:01;;;;;;;;;;;13.80;99.90;;;;;;5028029;28;20441;-81
2021/08/05 06:55:27;;;;;;;;;;;13.80;99.90;;;;;;5023109;28;19912;-76
2021/08/05 06:57:52;;;;;;;;;;;13.90;99.90;;;;;;5029416;28;20281;-83
2021/08/05 07:00:18;;;;;;;;;;;14.00;99.90;;;;;;5023776;28;19913;-77
2021/08/05 07:02:43;;;;;;;;;;;14.00;99.90;;;;;;5029296;28;20026;-81
2021/08/05 07:05:10;;;;;;;;;;;14.10;99.90;;;;;;5024689;28;19912;-81
2021/08/05 07:07:35;;;;;;;;;;;14.10;99.90;;;;;;5024353;28;19913;-81
2021/08/05 07:10:02;;;;;;;;;;;14.20;99.90;;;;;;5028572;28;19920;-81
2021/08/05 07:12:28;;;;;;;;;;;14.20;99.90;;;;;;5028877;28;19963;-81
2021/08/05 07:14:53;;;;;;;;;;;14.30;99.90;;;;;;5025366;28;20002;-81
2021/08/05 07:17:18;;;;;;;;;;;14.40;99.90;;;;;;5024426;28;19912;-81
2021/08/05 07:19:44;;;;;;;;;;;14.50;99.90;;;;;;5024603;28;19928;-81
2021/08/05 07:22:10;;;;;;;;;;;14.50;99.90;;;;;;5007713;28;19917;-81
2021/08/05 07:24:35;;;;;;;;;;;14.50;99.90;;;;;;5025012;28;19917;-81
2021/08/05 07:27:01;;;;;;;;;;;14.50;99.90;;;;;;5007200;28;19909;-81
2021/08/05 07:29:28;;;;;;;;;;;14.60;99.90;;;;;;5024968;28;20004;-81
2021/08/05 07:31:54;;;;;;;;;;;14.70;99.90;;;;;;5024496;28;19939;-81
2021/08/05 07:34:20;;;;;;;;;;;14.70;99.90;;;;;;5024326;28;19920;-81
2021/08/05 07:36:45;;;;;;;;;;;14.80;99.90;;;;;;5023738;28;20290;-80
2021/08/05 07:39:11;;;;;;;;;;;14.80;99.90;;;;;;5024937;28;19919;-81
2021/08/05 07:41:37;;;;;;;;;;;14.70;99.90;;;;;;5024302;28;19924;-81
2021/08/05 07:44:03;;;;;;;;;;;14.70;99.90;;;;;;5006587;28;19920;-81
2021/08/05 07:46:29;;;;;;;;;;;14.80;99.90;;;;;;5028880;28;19913;-81
2021/08/05 07:48:54;;;;;;;;;;;14.90;99.90;;;;;;5017437;28;19917;-81
2021/08/05 07:51:20;;;;;;;;;;;14.90;99.90;;;;;;5012173;28;19913;-81
2021/08/05 07:53:45;;;;;;;;;;;14.90;99.90;;;;;;5018801;28;19913;-81
2021/08/05 07:56:11;;;;;;;;;;;15.00;99.90;;;;;;5012372;28;20319;-81
2021/08/05 07:58:40;;;;;;;;;;;15.00;99.90;;;;;;5015596;28;19948;-81
2021/08/05 08:01:06;;;;;;;;;;;15.00;99.90;;;;;;5039689;28;20345;-76
2021/08/05 08:03:32;;;;;;;;;;;15.10;99.90;;;;;;5039885;28;19958;-76
2021/08/05 08:05:58;;;;;;;;;;;15.20;99.90;;;;;;5039704;28;20019;-76
2021/08/05 08:08:23;;;;;;;;;;;15.20;99.90;;;;;;5040041;28;19982;-77
2021/08/05 08:10:49;;;;;;;;;;;15.30;99.90;;;;;;5039824;28;19905;-76
2021/08/05 08:13:14;;;;;;;;;;;15.30;99.90;;;;;;5039964;28;19916;-76
2021/08/05 08:15:40;;;;;;;;;;;15.40;99.90;;;;;;5021603;28;19960;-76
2021/08/05 08:18:06;;;;;;;;;;;15.50;99.90;;;;;;5032236;28;20051;-83
2021/08/05 08:20:32;;;;;;;;;;;15.70;99.90;;;;;;5014018;28;19910;-82
2021/08/05 08:22:58;;;;;;;;;;;15.90;99.90;;;;;;5019166;28;19924;-80
2021/08/05 08:25:23;;;;;;;;;;;15.90;99.90;;;;;;5030140;28;19924;-81
2021/08/05 08:27:49;;;;;;;;;;;16.10;99.90;;;;;;5031311;28;19999;-80
2021/08/05 08:30:17;;;;;;;;;;;16.20;99.90;;;;;;5031638;28;20000;-80
2021/08/05 08:32:44;;;;;;;;;;;16.30;99.90;;;;;;5029961;28;19923;-80
2021/08/05 08:35:09;;;;;;;;;;;16.40;99.90;;;;;;5001013;28;19921;-80
2021/08/05 08:37:35;;;;;;;;;;;16.60;99.90;;;;;;5030659;28;19913;-80
2021/08/05 08:40:00;;;;;;;;;;;16.60;99.90;;;;;;5031071;28;19908;-80
2021/08/05 08:42:26;;;;;;;;;;;16.70;99.90;;;;;;5030985;28;20401;-80
2021/08/05 08:44:51;;;;;;;;;;;16.70;99.90;;;;;;5030687;28;19908;-79
2021/08/05 08:47:20;;;;;;;;;;;16.80;99.90;;;;;;5031204;28;19932;-80
2021/08/05 08:49:48;;;;;;;;;;;16.80;99.90;;;;;;5030304;28;20392;-80
2021/08/05 08:52:13;;;;;;;;;;;16.70;99.90;;;;;;5030129;28;19913;-80
2021/08/05 08:54:43;;;;;;;;;;;16.70;99.90;;;;;;5030370;28;19909;-80
2021/08/05 08:57:10;;;;;;;;;;;16.80;99.90;;;;;;5026416;28;19913;-80
2021/08/05 08:59:36;;;;;;;;;;;16.90;99.90;;;;;;5027761;28;19963;-79
2021/08/05 09:02:01;;;;;;;;;;;16.90;99.90;;;;;;5008735;28;20003;-80
2021/08/05 09:04:27;;;;;;;;;;;17.00;99.90;;;;;;5027086;28;19948;-80
2021/08/05 09:06:53;;;;;;;;;;;17.00;99.90;;;;;;5018435;28;19931;-80
2021/08/05 09:09:18;;;;;;;;;;;17.10;99.90;;;;;;5027463;28;19916;-79
2021/08/05 09:11:44;;;;;;;;;;;17.20;99.90;;;;;;5028063;28;20413;-79
2021/08/05 09:14:10;;;;;;;;;;;17.30;99.90;;;;;;5020235;28;19921;-79
2021/08/05 09:16:35;;;;;;;;;;;17.40;99.90;;;;;;5008204;28;20030;-79
2021/08/05 09:19:11;;;;;;;;;;;17.40;99.90;;;;;;5010610;28;19944;-79
2021/08/05 09:21:37;;;;;;;;;;;17.50;99.90;;;;;;5006826;28;19991;-79
2021/08/05 09:24:06;;;;;;;;;;;17.50;99.90;;;;;;5013514;28;19913;-79
2021/08/05 09:26:31;;;;;;;;;;;17.60;99.90;;;;;;5026155;28;20768;-79
2021/08/05 09:29:01;;;;;;;;;;;17.80;99.90;;;;;;5027666;28;19957;-79
2021/08/05 09:31:27;;;;;;;;;;;17.90;99.90;;;;;;5026419;28;19996;-79
2021/08/05 09:33:58;;;;;;;;;;;17.90;99.90;;;;;;5028843;28;20003;-79
2021/08/05 09:36:24;;;;;;;;;;;18.10;99.90;;;;;;5026745;28;19920;-80
2021/08/05 09:38:49;;;;;;;;;;;18.20;99.90;;;;;;5027352;28;19909;-79
2021/08/05 09:41:15;;;;;;;;;;;18.30;99.90;;;;;;5027709;28;19924;-79
2021/08/05 09:43:41;;;;;;;;;;;18.30;99.90;;;;;;5028714;28;20259;-79
2021/08/05 09:46:06;;;;;;;;;;;18.20;99.90;;;;;;5027665;28;19994;-79
2021/08/05 09:48:38;;;;;;;;;;;18.30;99.90;;;;;;5027742;28;19909;-74
2021/08/05 09:51:14;;;;;;;;;;;18.40;99.90;;;;;;5016986;28;20059;-74
2021/08/05 09:53:55;;;;;;;;;;;18.30;99.90;;;;;;5017584;28;19928;-74
2021/08/05 09:56:21;;;;;;;;;;;18.20;99.90;;;;;;5035032;28;19912;-74
2021/08/05 09:58:48;;;;;;;;;;;18.10;99.90;;;;;;5035113;28;19911;-74
2021/08/05 10:01:14;;;;;;;;;;;18.00;99.90;;;;;;5035201;28;20007;-74
2021/08/05 10:03:39;;;;;;;;;;;18.00;99.90;;;;;;5016954;28;19972;-74
2021/08/05 10:06:07;;;;;;;;;;;18.00;99.90;;;;;;5034915;28;19905;-74
2021/08/05 10:08:43;;;;;;;;;;;18.00;99.90;;;;;;5035049;28;20350;-75
2021/08/05 10:11:09;;;;;;;;;;;18.00;99.90;;;;;;5035292;28;20354;-75
2021/08/05 10:13:35;;;;;;;;;;;18.10;99.90;;;;;;5034764;28;19909;-75
2021/08/05 10:16:10;;;;;;;;;;;18.10;99.90;;;;;;5035663;28;19951;-74
2021/08/05 10:18:36;;;;;;;;;;;18.20;99.90;;;;;;5034904;28;19905;-75
2021/08/05 10:21:03;;;;;;;;;;;18.10;99.90;;;;;;5035698;28;19912;-75
2021/08/05 10:23:29;;;;;;;;;;;18.00;99.90;;;;;;5034921;28;19940;-75
2021/08/05 10:25:56;;;;;;;;;;;17.80;99.90;;;;;;5034486;28;19978;-75
2021/08/05 10:28:22;;;;;;;;;;;17.80;99.90;;;;;;5034579;28;19912;-74
2021/08/05 10:30:47;;;;;;;;;;;17.70;99.90;;;;;;5034319;28;20276;-72
2021/08/05 10:33:13;;;;;;;;;;;17.80;99.90;;;;;;5034319;28;20000;-72
2021/08/05 10:35:39;;;;;;;;;;;17.90;99.90;;;;;;5034508;28;19905;-72
2021/08/05 10:38:05;;;;;;;;;;;18.10;99.90;;;;;;5034015;28;19916;-72
2021/08/05 10:40:31;;;;;;;;;;;18.30;99.90;;;;;;5034827;28;20278;-72
2021/08/05 10:42:57;;;;;;;;;;;18.70;99.90;;;;;;5034809;28;19916;-72
2021/08/05 10:45:22;;;;;;;;;;;19.30;99.90;;;;;;5015560;28;19906;-72
2021/08/05 10:47:49;;;;;;;;;;;19.70;99.90;;;;;;5015812;28;20000;-72
2021/08/05 10:50:15;;;;;;;;;;;20.00;99.90;;;;;;5014549;28;19909;-72
2021/08/05 10:52:42;;;;;;;;;;;19.90;99.90;;;;;;5014287;28;20000;-72
2021/08/05 10:55:17;;;;;;;;;;;19.90;99.90;;;;;;5013945;28;19905;-72
2021/08/05 10:57:43;;;;;;;;;;;19.80;99.90;;;;;;5014132;28;19968;-73
2021/08/05 11:00:11;;;;;;;;;;;19.80;99.90;;;;;;5014458;28;19905;-72
2021/08/05 11:02:44;;;;;;;;;;;19.70;99.90;;;;;;5013986;28;19914;-72
2021/08/05 11:05:11;;;;;;;;;;;19.60;99.90;;;;;;5014048;28;20009;-72
2021/08/05 11:07:37;;;;;;;;;;;19.70;99.90;;;;;;5013778;28;19944;-73
2021/08/05 11:10:14;;;;;;;;;;;19.70;99.90;;;;;;5014270;28;19975;-72
2021/08/05 11:12:40;;;;;;;;;;;19.70;99.90;;;;;;5013678;28;19905;-72
2021/08/05 11:15:29;;;;;;;;;;;19.60;99.90;;;;;;5013922;28;20313;-72
2021/08/05 11:20:32;;;;;;;;;;;19.50;99.90;;;;;;5013041;28;20274;-72
2021/08/05 11:22:58;;;;;;;;;;;19.40;99.90;;;;;;5013466;28;19910;-72
2021/08/05 11:25:23;;;;;;;;;;;19.20;99.90;;;;;;4995960;28;19975;-72
2021/08/05 11:28:08;;;;;;;;;;;19.20;99.90;;;;;;5014280;28;19910;-72
2021/08/05 11:30:47;;;;;;;;;;;19.00;99.90;;;;;;5013757;28;19905;-72
2021/08/05 11:33:46;;;;;;;;;;;19.00;99.90;;;;;;5013522;28;19913;-72
2021/08/05 11:36:16;;;;;;;;;;;19.10;99.90;;;;;;5013525;28;19912;-72
2021/08/05 11:39:00;;;;;;;;;;;19.10;99.90;;;;;;5013353;28;19963;-72
2021/08/05 11:41:44;;;;;;;;;;;19.10;99.90;;;;;;5013308;28;19917;-72
2021/08/05 11:44:21;;;;;;;;;;;19.20;99.90;;;;;;5013479;28;19912;-72
2021/08/05 11:47:09;;;;;;;;;;;19.50;99.90;;;;;;5013472;28;19909;-72
2021/08/05 11:49:36;;;;;;;;;;;19.70;99.90;;;;;;5013329;28;19975;-72
2021/08/05 11:52:08;;;;;;;;;;;20.00;99.90;;;;;;5013516;28;19945;-72
2021/08/05 11:54:34;;;;;;;;;;;20.30;99.90;;;;;;5013401;28;19955;-72
2021/08/05 11:57:01;;;;;;;;;;;20.70;99.90;;;;;;5013507;28;19905;-72
2021/08/05 11:59:40;;;;;;;;;;;20.80;99.90;;;;;;5013646;28;19906;-72
2021/08/05 12:02:10;;;;;;;;;;;20.90;99.90;;;;;;5013333;28;19988;-72
2021/08/05 12:04:36;;;;;;;;;;;20.70;99.90;;;;;;5013355;28;19996;-72
2021/08/05 12:07:21;;;;;;;;;;;20.70;99.90;;;;;;5013222;28;19977;-71
2021/08/05 12:09:52;;;;;;;;;;;20.90;99.90;;;;;;5013069;28;19928;-72
2021/08/05 12:12:18;;;;;;;;;;;21.30;99.90;;;;;;5013266;28;20346;-72
2021/08/05 12:14:47;;;;;;;;;;;21.50;99.90;;;;;;5013002;28;19905;-72
2021/08/05 12:17:13;;;;;;;;;;;21.40;99.90;;;;;;5013254;28;19988;-72
2021/08/05 12:19:46;;;;;;;;;;;21.20;99.90;;;;;;5013027;28;20371;-72
2021/08/05 12:22:12;;;;;;;;;;;21.30;99.90;;;;;;5013129;28;19909;-75
2021/08/05 12:24:41;;;;;;;;;;;21.30;99.90;;;;;;4995413;28;20239;-75
2021/08/05 12:27:06;;;;;;;;;;;21.50;99.90;;;;;;5013174;28;20350;-75
2021/08/05 12:29:32;;;;;;;;;;;21.70;99.90;;;;;;5014452;28;19912;-75
2021/08/05 12:32:05;;;;;;;;;;;22.10;99.90;;;;;;5033653;28;19905;-74
2021/08/05 12:34:30;;;;;;;;;;;22.40;99.90;;;;;;5036643;28;19905;-75
2021/08/05 12:36:56;;;;;;;;;;;22.10;99.90;;;;;;5036573;28;20378;-75
2021/08/05 12:39:25;;;;;;;;;;;22.00;99.90;;;;;;5036548;28;19905;-74
2021/08/05 12:41:51;;;;;;;;;;;21.90;99.90;;;;;;5036651;28;19924;-75
2021/08/05 12:44:18;;;;;;;;;;;21.80;99.90;;;;;;5036376;28;19905;-75
2021/08/05 12:46:47;;;;;;;;;;;21.70;99.90;;;;;;5036679;28;19937;-75
2021/08/05 12:49:13;;;;;;;;;;;21.50;99.90;;;;;;5036507;28;19913;-75
2021/08/05 12:51:39;;;;;;;;;;;21.20;99.90;;;;;;5036321;28;19905;-75
2021/08/05 12:54:15;;;;;;;;;;;21.00;99.90;;;;;;5036232;28;20004;-75
2021/08/05 12:56:50;;;;;;;;;;;21.30;99.90;;;;;;5036473;28;19912;-75
2021/08/05 12:59:16;;;;;;;;;;;21.50;99.90;;;;;;5036178;28;19999;-75
2021/08/05 13:01:42;;;;;;;;;;;22.00;99.90;;;;;;5036050;28;20318;-75
2021/08/05 13:04:20;;;;;;;;;;;22.50;99.90;;;;;;5036015;28;19936;-75
2021/08/05 13:06:51;;;;;;;;;;;22.70;99.90;;;;;;5036395;28;20215;-75
2021/08/05 13:09:22;;;;;;;;;;;22.80;99.90;;;;;;5036248;28;19905;-75
2021/08/05 13:11:48;;;;;;;;;;;22.70;99.90;;;;;;5026506;28;19912;-81
2021/08/05 13:14:29;;;;;;;;;;;23.00;99.90;;;;;;5026147;28;19916;-80
2021/08/05 13:17:05;;;;;;;;;;;23.20;99.90;;;;;;5026553;28;19917;-80
2021/08/05 13:19:31;;;;;;;;;;;23.60;99.90;;;;;;5026285;28;19962;-81
2021/08/05 13:21:58;;;;;;;;;;;23.80;99.90;;;;;;5025710;28;19920;-81
2021/08/05 13:24:28;;;;;;;;;;;23.90;99.90;;;;;;5026015;28;19964;-80
2021/08/05 13:26:56;;;;;;;;;;;23.90;99.90;;;;;;5026337;28;19912;-81
2021/08/05 13:29:34;;;;;;;;;;;23.80;99.90;;;;;;5031798;28;19909;-75
2021/08/05 13:31:59;;;;;;;;;;;23.90;99.90;;;;;;5035840;28;19952;-75
2021/08/05 13:34:25;;;;;;;;;;;24.00;99.90;;;;;;5035436;28;20416;-75
2021/08/05 13:36:50;;;;;;;;;;;23.70;99.90;;;;;;5017711;28;19911;-75
2021/08/05 13:39:16;;;;;;;;;;;23.50;99.90;;;;;;5036083;28;20342;-75
2021/08/05 13:41:42;;;;;;;;;;;23.10;99.90;;;;;;5035452;28;19996;-75
2021/08/05 13:44:07;;;;;;;;;;;22.70;99.90;;;;;;5017141;28;19905;-75
2021/08/05 13:46:32;;;;;;;;;;;22.70;99.90;;;;;;5034387;28;19905;-80
2021/08/05 13:48:58;;;;;;;;;;;22.40;99.90;;;;;;5025280;28;19913;-81
2021/08/05 13:51:24;;;;;;;;;;;22.40;99.90;;;;;;5030254;28;19904;-75
2021/08/05 13:53:50;;;;;;;;;;;22.70;99.90;;;;;;5035267;28;19909;-74
2021/08/05 13:56:16;;;;;;;;;;;23.10;99.90;;;;;;5035099;28;19912;-75
2021/08/05 13:58:42;;;;;;;;;;;23.10;99.90;;;;;;5035581;28;19905;-75
2021/08/05 14:01:08;;;;;;;;;;;23.20;99.90;;;;;;5034924;28;19912;-74
2021/08/05 14:03:35;;;;;;;;;;;23.20;99.90;;;;;;5034925;28;20310;-75
2021/08/05 14:06:00;;;;;;;;;;;23.30;99.90;;;;;;5034926;28;19905;-75
2021/08/05 14:08:26;;;;;;;;;;;23.40;99.90;;;;;;5035031;28;19906;-75
2021/08/05 14:10:52;;;;;;;;;;;23.40;99.90;;;;;;5035236;28;19978;-76
2021/08/05 14:13:17;;;;;;;;;;;23.40;99.90;;;;;;5034886;28;19905;-75
2021/08/05 14:15:43;;;;;;;;;;;23.40;99.90;;;;;;5034892;28;19905;-75
2021/08/05 14:18:08;;;;;;;;;;;23.30;99.90;;;;;;5019965;28;19920;-81